Time;durP1;ratioP1;P1;durP2;ratioP2;P2;SDS_P1;SDS_P2;PMS_P1;PMS_P2;Temp;Humidity;BMP_temperature;BMP_pressure;BME280_temperature;BME280_humidity;BME280_pressure;Samples;Min_cycle;Max_cycle;Signal;HPM_P1;HPM_P2
2022/03/29 00:00:08;;;;;;;;;36.75;32.00;;;;;;;;5099523;27;46093;-78
2022/03/29 00:02:34;;;;;;;;;38.25;32.00;;;;;;;;5101468;27;46241;-78
2022/03/29 00:05:04;;;;;;;;;39.25;34.00;;;;;;;;5101270;27;45300;-78
2022/03/29 00:07:30;;;;;;;;;37.50;31.25;;;;;;;;5101562;27;45642;-78
2022/03/29 00:09:55;;;;;;;;;35.00;31.50;;;;;;;;5101131;27;45440;-78
2022/03/29 00:12:20;;;;;;;;;36.25;32.50;;;;;;;;5101200;27;45357;-77
2022/03/29 00:14:45;;;;;;;;;36.75;32.00;;;;;;;;5101484;27;45350;-78
2022/03/29 00:17:11;;;;;;;;;36.50;31.50;;;;;;;;5120589;27;45626;-78
2022/03/29 00:19:36;;;;;;;;;38.75;32.00;;;;;;;;5121661;27;45336;-78
2022/03/29 00:22:01;;;;;;;;;34.25;30.25;;;;;;;;5120066;27;46812;-78
2022/03/29 00:24:26;;;;;;;;;34.00;31.25;;;;;;;;5120399;27;45610;-78
2022/03/29 00:26:52;;;;;;;;;40.00;34.00;;;;;;;;5121770;27;45336;-78
2022/03/29 00:29:17;;;;;;;;;34.25;31.75;;;;;;;;5121103;27;45432;-78
2022/03/29 00:31:42;;;;;;;;;39.00;34.00;;;;;;;;5119792;27;46900;-77
2022/03/29 00:34:07;;;;;;;;;35.25;31.50;;;;;;;;5121580;27;45263;-78
2022/03/29 00:36:32;;;;;;;;;39.75;34.00;;;;;;;;5119978;27;45310;-78
2022/03/29 00:38:58;;;;;;;;;34.00;31.25;;;;;;;;5121479;27;45372;-78
2022/03/29 00:41:23;;;;;;;;;41.25;35.25;;;;;;;;5121256;27;45425;-78
2022/03/29 00:43:48;;;;;;;;;33.50;31.00;;;;;;;;5121462;27;45329;-78
2022/03/29 00:46:13;;;;;;;;;37.75;31.25;;;;;;;;5121330;27;45317;-78
2022/03/29 00:48:39;;;;;;;;;39.50;31.75;;;;;;;;5121235;27;45502;-78
2022/03/29 00:51:04;;;;;;;;;37.75;32.75;;;;;;;;5119877;27;48254;-78
2022/03/29 00:53:30;;;;;;;;;40.75;32.75;;;;;;;;5121017;27;45292;-78
2022/03/29 00:55:56;;;;;;;;;42.25;34.25;;;;;;;;5121454;27;45229;-78
2022/03/29 00:58:21;;;;;;;;;40.50;34.25;;;;;;;;5119677;27;45941;-78
2022/03/29 01:00:47;;;;;;;;;34.75;30.25;;;;;;;;5120204;27;45472;-78
2022/03/29 01:03:12;;;;;;;;;40.50;34.00;;;;;;;;5121020;27;45172;-78
2022/03/29 01:05:38;;;;;;;;;40.00;34.75;;;;;;;;5121244;27;45174;-77
2022/03/29 01:08:04;;;;;;;;;36.25;31.75;;;;;;;;5120675;27;45305;-78
2022/03/29 01:10:29;;;;;;;;;42.75;35.00;;;;;;;;5121057;27;46646;-78
2022/03/29 01:12:55;;;;;;;;;40.25;34.25;;;;;;;;5120769;27;45339;-78
2022/03/29 01:15:22;;;;;;;;;38.25;33.50;;;;;;;;5113989;27;45402;-77
2022/03/29 01:17:49;;;;;;;;;40.00;32.50;;;;;;;;5100113;27;45357;-78
2022/03/29 01:20:18;;;;;;;;;38.50;33.00;;;;;;;;5099872;27;46958;-78
2022/03/29 01:22:47;;;;;;;;;43.25;35.75;;;;;;;;5100050;27;45285;-78
2022/03/29 01:25:14;;;;;;;;;36.75;32.75;;;;;;;;5100136;27;45430;-78
2022/03/29 01:27:39;;;;;;;;;38.25;33.50;;;;;;;;5100127;27;45301;-78
2022/03/29 01:30:05;;;;;;;;;32.00;30.50;;;;;;;;5099250;27;45927;-78
2022/03/29 01:32:31;;;;;;;;;40.75;34.50;;;;;;;;5098759;27;45176;-78
2022/03/29 01:34:57;;;;;;;;;39.25;31.25;;;;;;;;5100062;27;45328;-78
2022/03/29 01:37:23;;;;;;;;;38.75;34.00;;;;;;;;5098416;27;45290;-78
2022/03/29 01:39:48;;;;;;;;;37.75;31.25;;;;;;;;5099633;27;45292;-78
2022/03/29 01:42:13;;;;;;;;;35.50;31.75;;;;;;;;5098454;27;45805;-78
2022/03/29 01:44:39;;;;;;;;;38.50;34.50;;;;;;;;5099980;27;45240;-78
2022/03/29 01:47:04;;;;;;;;;41.75;32.75;;;;;;;;5099885;27;45506;-78
2022/03/29 01:49:31;;;;;;;;;37.25;34.00;;;;;;;;5098367;27;47427;-77
2022/03/29 01:51:57;;;;;;;;;40.00;34.25;;;;;;;;5099763;27;45387;-78
2022/03/29 01:54:22;;;;;;;;;33.50;31.00;;;;;;;;5099958;27;45232;-78
2022/03/29 01:56:47;;;;;;;;;37.75;32.25;;;;;;;;5099748;27;45534;-78
2022/03/29 01:59:12;;;;;;;;;44.25;36.25;;;;;;;;5099765;27;45330;-78
2022/03/29 02:01:48;;;;;;;;;37.00;32.00;;;;;;;;5098228;27;45371;-78
2022/03/29 02:04:14;;;;;;;;;36.25;30.00;;;;;;;;5099670;27;45335;-77
2022/03/29 02:06:39;;;;;;;;;34.00;31.50;;;;;;;;5099500;27;45402;-77
2022/03/29 02:09:08;;;;;;;;;38.00;32.25;;;;;;;;5097853;27;47411;-77
2022/03/29 02:11:35;;;;;;;;;33.00;29.00;;;;;;;;5099563;27;45294;-77
2022/03/29 02:14:00;;;;;;;;;35.25;31.75;;;;;;;;5101770;27;45575;-78
2022/03/29 02:16:26;;;;;;;;;36.00;30.50;;;;;;;;5117284;27;45712;-78
2022/03/29 02:18:51;;;;;;;;;33.25;30.50;;;;;;;;5123811;27;45359;-78
2022/03/29 02:21:16;;;;;;;;;38.75;32.50;;;;;;;;5123668;27;45341;-78
2022/03/29 02:23:42;;;;;;;;;37.50;33.00;;;;;;;;5123745;27;45329;-78
2022/03/29 02:26:07;;;;;;;;;38.00;32.50;;;;;;;;5122294;27;47606;-78
2022/03/29 02:28:32;;;;;;;;;39.75;34.00;;;;;;;;5121903;27;48227;-78
2022/03/29 02:30:57;;;;;;;;;42.75;32.25;;;;;;;;5123013;27;45351;-77
2022/03/29 02:33:22;;;;;;;;;37.25;31.00;;;;;;;;5123777;27;45270;-78
2022/03/29 02:35:48;;;;;;;;;39.50;34.00;;;;;;;;5123409;27;45518;-78
2022/03/29 02:38:13;;;;;;;;;38.00;32.00;;;;;;;;5121892;27;47089;-78
2022/03/29 02:40:39;;;;;;;;;40.50;33.00;;;;;;;;5122032;27;45416;-78
2022/03/29 02:43:04;;;;;;;;;38.25;34.00;;;;;;;;5122124;27;45336;-78
2022/03/29 02:45:30;;;;;;;;;38.50;33.75;;;;;;;;5123118;27;45311;-78
2022/03/29 02:47:56;;;;;;;;;38.00;33.75;;;;;;;;5123146;27;46180;-78
2022/03/29 02:50:22;;;;;;;;;40.25;36.00;;;;;;;;5121986;27;45820;-78
2022/03/29 02:52:55;;;;;;;;;38.25;32.00;;;;;;;;5123070;27;45289;-78
2022/03/29 02:55:21;;;;;;;;;39.00;33.25;;;;;;;;5123040;27;45347;-78
2022/03/29 02:57:47;;;;;;;;;36.50;32.25;;;;;;;;5123077;27;46098;-78
2022/03/29 03:00:15;;;;;;;;;30.00;27.00;;;;;;;;5122686;27;45337;-78
2022/03/29 03:02:41;;;;;;;;;38.00;32.50;;;;;;;;5123336;27;45207;-78
2022/03/29 03:05:06;;;;;;;;;40.75;34.00;;;;;;;;5121484;27;46672;-78
2022/03/29 03:07:32;;;;;;;;;37.75;31.25;;;;;;;;5122688;27;45365;-78
2022/03/29 03:09:57;;;;;;;;;33.25;31.00;;;;;;;;5122899;27;45438;-77
2022/03/29 03:12:22;;;;;;;;;37.75;32.00;;;;;;;;5121685;27;45328;-77
2022/03/29 03:14:48;;;;;;;;;36.00;31.75;;;;;;;;5118899;27;45921;-77
2022/03/29 03:17:13;;;;;;;;;33.00;30.25;;;;;;;;5100718;27;47457;-77
2022/03/29 03:19:38;;;;;;;;;37.75;32.75;;;;;;;;5102246;27;45291;-77
2022/03/29 03:22:03;;;;;;;;;38.25;33.50;;;;;;;;5100626;27;45578;-77
2022/03/29 03:24:28;;;;;;;;;35.25;30.50;;;;;;;;5100357;27;46115;-77
2022/03/29 03:26:54;;;;;;;;;35.75;31.50;;;;;;;;5102074;27;45342;-77
2022/03/29 03:29:19;;;;;;;;;33.67;30.67;;;;;;;;5101232;27;45381;-78
2022/03/29 03:31:44;;;;;;;;;38.75;33.50;;;;;;;;5102184;27;45309;-77
2022/03/29 03:34:09;;;;;;;;;34.50;30.50;;;;;;;;5101899;27;45580;-77
2022/03/29 03:36:34;;;;;;;;;33.33;28.33;;;;;;;;5101515;27;45285;-77
2022/03/29 03:39:00;;;;;;;;;38.25;33.25;;;;;;;;5101861;27;45243;-77
2022/03/29 03:41:25;;;;;;;;;39.00;34.00;;;;;;;;5101933;27;45309;-77
2022/03/29 03:43:50;;;;;;;;;38.00;32.00;;;;;;;;5101678;27;45290;-77
2022/03/29 03:46:15;;;;;;;;;32.75;30.75;;;;;;;;5101509;27;45234;-77
2022/03/29 03:48:40;;;;;;;;;34.50;31.25;;;;;;;;5101730;27;45471;-77
2022/03/29 03:51:06;;;;;;;;;38.00;33.75;;;;;;;;5101956;27;45313;-78
2022/03/29 03:53:31;;;;;;;;;37.50;31.50;;;;;;;;5101514;27;45566;-77
2022/03/29 03:55:56;;;;;;;;;29.50;29.00;;;;;;;;5101446;27;45385;-77
2022/03/29 03:58:22;;;;;;;;;37.00;31.00;;;;;;;;5101629;27;45433;-77
2022/03/29 04:00:47;;;;;;;;;33.25;30.50;;;;;;;;5101249;27;45602;-78
2022/03/29 04:03:13;;;;;;;;;34.25;31.75;;;;;;;;5101517;27;45317;-77
2022/03/29 04:05:38;;;;;;;;;36.50;32.50;;;;;;;;5101316;27;45318;-78
2022/03/29 04:08:04;;;;;;;;;37.25;33.00;;;;;;;;5101300;27;45217;-77
2022/03/29 04:10:29;;;;;;;;;32.75;29.75;;;;;;;;5101621;27;45382;-77
2022/03/29 04:12:54;;;;;;;;;30.00;29.50;;;;;;;;5099864;27;46938;-77
2022/03/29 04:15:19;;;;;;;;;33.75;31.00;;;;;;;;5107650;27;45478;-77
2022/03/29 04:17:44;;;;;;;;;33.75;30.50;;;;;;;;5121862;27;45398;-77
2022/03/29 04:20:10;;;;;;;;;36.75;31.75;;;;;;;;5090924;27;45498;-77
2022/03/29 04:22:35;;;;;;;;;43.50;35.50;;;;;;;;5080382;28;45419;-77
2022/03/29 04:25:00;;;;;;;;;34.50;31.25;;;;;;;;5080532;28;45330;-77
2022/03/29 04:27:25;;;;;;;;;36.00;31.25;;;;;;;;5080667;27;45373;-77
2022/03/29 04:29:51;;;;;;;;;38.50;32.25;;;;;;;;5078902;28;45467;-77
2022/03/29 04:32:16;;;;;;;;;34.25;31.50;;;;;;;;5080579;27;45424;-77
2022/03/29 04:34:44;;;;;;;;;35.75;31.50;;;;;;;;5079554;27;45278;-77
2022/03/29 04:37:09;;;;;;;;;36.75;31.75;;;;;;;;5080346;27;45259;-77
2022/03/29 04:39:36;;;;;;;;;36.75;31.75;;;;;;;;5080621;27;45314;-77
2022/03/29 04:42:02;;;;;;;;;48.00;38.75;;;;;;;;5080249;28;45287;-77
2022/03/29 04:44:27;;;;;;;;;54.50;42.25;;;;;;;;5080218;27;45258;-76
2022/03/29 04:46:52;;;;;;;;;60.25;45.50;;;;;;;;5078896;28;45364;-75
2022/03/29 04:49:18;;;;;;;;;47.50;40.00;;;;;;;;5080419;28;45284;-76
2022/03/29 04:51:43;;;;;;;;;44.75;34.25;;;;;;;;5078891;28;47105;-76
2022/03/29 04:54:09;;;;;;;;;37.00;32.00;;;;;;;;5080126;27;45357;-76
2022/03/29 04:56:34;;;;;;;;;36.50;32.75;;;;;;;;5080138;27;45211;-76
2022/03/29 04:58:59;;;;;;;;;38.25;33.75;;;;;;;;5080226;27;45414;-76
2022/03/29 05:01:25;;;;;;;;;36.75;31.50;;;;;;;;5079717;27;45382;-76
2022/03/29 05:03:50;;;;;;;;;29.33;27.00;;;;;;;;5078728;28;47356;-76
2022/03/29 05:06:15;;;;;;;;;32.75;28.75;;;;;;;;5080247;27;45375;-76
2022/03/29 05:08:41;;;;;;;;;31.50;29.00;;;;;;;;5078546;28;45407;-76
2022/03/29 05:11:07;;;;;;;;;72.50;57.50;;;;;;;;5079683;27;45306;-75
2022/03/29 05:13:33;;;;;;;;;73.00;61.25;;;;;;;;5090611;27;47261;-76
2022/03/29 05:15:58;;;;;;;;;46.00;38.00;;;;;;;;5103724;27;45305;-76
2022/03/29 05:18:23;;;;;;;;;35.25;32.25;;;;;;;;5121455;27;45359;-77
2022/03/29 05:20:48;;;;;;;;;34.50;31.75;;;;;;;;5121272;27;45456;-77
2022/03/29 05:23:15;;;;;;;;;40.50;35.50;;;;;;;;5129177;27;46304;-78
2022/03/29 05:25:41;;;;;;;;;40.00;33.25;;;;;;;;5111325;27;45407;-78
2022/03/29 05:28:08;;;;;;;;;51.75;42.00;;;;;;;;5109470;27;45380;-79
2022/03/29 05:30:34;;;;;;;;;68.00;52.00;;;;;;;;5110421;27;45349;-78
2022/03/29 05:33:00;;;;;;;;;62.00;47.75;;;;;;;;5115721;27;45255;-78
2022/03/29 05:35:29;;;;;;;;;54.50;43.50;;;;;;;;5106430;27;45497;-80
2022/03/29 05:37:54;;;;;;;;;44.25;37.75;;;;;;;;5104209;27;45530;-80
2022/03/29 05:40:19;;;;;;;;;53.00;43.25;;;;;;;;5101541;27;45297;-79
2022/03/29 05:42:45;;;;;;;;;105.00;94.50;;;;;;;;5100644;27;46083;-79
2022/03/29 05:45:11;;;;;;;;;52.50;43.00;;;;;;;;5099832;27;45230;-79
2022/03/29 05:50:20;;;;;;;;;42.00;35.00;;;;;;;;5104284;27;45429;-81
2022/03/29 05:52:46;;;;;;;;;71.25;57.25;;;;;;;;5103277;27;46632;-78
2022/03/29 05:55:11;;;;;;;;;48.00;37.75;;;;;;;;5103484;27;45222;-80
2022/03/29 05:57:36;;;;;;;;;44.00;36.00;;;;;;;;5104320;27;45211;-81
2022/03/29 06:00:02;;;;;;;;;44.25;35.50;;;;;;;;5103964;27;45338;-81
2022/03/29 06:02:28;;;;;;;;;48.00;39.00;;;;;;;;5103223;27;45962;-79
2022/03/29 06:04:54;;;;;;;;;53.25;43.00;;;;;;;;5103162;27;45198;-80
2022/03/29 06:07:20;;;;;;;;;68.50;56.00;;;;;;;;5103171;27;45451;-80
2022/03/29 06:09:45;;;;;;;;;54.75;44.25;;;;;;;;5103309;27;45449;-79
2022/03/29 06:12:10;;;;;;;;;33.50;30.25;;;;;;;;5104658;27;45365;-78
2022/03/29 06:14:35;;;;;;;;;40.50;34.25;;;;;;;;5105766;27;45384;-78
2022/03/29 06:17:01;;;;;;;;;41.25;35.50;;;;;;;;5126059;27;45383;-78
2022/03/29 06:19:27;;;;;;;;;60.00;46.25;;;;;;;;5123389;27;46315;-80
2022/03/29 06:21:52;;;;;;;;;86.00;76.00;;;;;;;;5136983;27;45512;-77
2022/03/29 06:24:17;;;;;;;;;56.50;44.25;;;;;;;;5137021;27;45288;-77
2022/03/29 06:26:43;;;;;;;;;80.50;68.50;;;;;;;;5130974;27;45367;-78
2022/03/29 06:29:09;;;;;;;;;51.25;41.50;;;;;;;;5083857;27;45472;-79
2022/03/29 06:31:35;;;;;;;;;45.00;37.00;;;;;;;;5085872;27;46591;-81
2022/03/29 06:34:00;;;;;;;;;41.00;34.00;;;;;;;;5081906;27;45324;-81
2022/03/29 06:36:25;;;;;;;;;36.50;32.25;;;;;;;;5081096;27;45394;-82
2022/03/29 06:38:51;;;;;;;;;49.75;40.50;;;;;;;;5082726;27;45353;-80
2022/03/29 06:41:16;;;;;;;;;54.50;41.00;;;;;;;;5082383;27;45534;-81
2022/03/29 06:43:42;;;;;;;;;48.75;41.00;;;;;;;;5082975;27;45298;-80
2022/03/29 06:46:08;;;;;;;;;48.25;38.00;;;;;;;;5081146;28;45344;-80
2022/03/29 06:48:34;;;;;;;;;40.25;34.50;;;;;;;;5081359;28;46076;-80
2022/03/29 06:50:59;;;;;;;;;45.00;36.50;;;;;;;;5083109;28;45740;-80
2022/03/29 06:53:25;;;;;;;;;44.25;33.50;;;;;;;;5082554;27;45734;-81
2022/03/29 06:55:51;;;;;;;;;44.75;36.75;;;;;;;;5096088;27;45340;-80
2022/03/29 06:58:17;;;;;;;;;42.50;35.50;;;;;;;;5080176;28;46229;-80
2022/03/29 07:00:42;;;;;;;;;45.50;37.00;;;;;;;;5082301;28;45595;-82
2022/03/29 07:03:07;;;;;;;;;39.00;33.75;;;;;;;;5080844;28;45381;-82
2022/03/29 07:05:36;;;;;;;;;43.50;36.75;;;;;;;;5083252;27;45374;-81
2022/03/29 07:08:01;;;;;;;;;43.50;36.25;;;;;;;;5085014;27;46892;-80
2022/03/29 07:13:10;;;;;;;;;42.00;34.50;;;;;;;;5102651;27;45264;-80
2022/03/29 07:15:35;;;;;;;;;39.75;32.75;;;;;;;;5113571;27;45472;-81
2022/03/29 07:18:00;;;;;;;;;37.50;31.75;;;;;;;;5125636;27;45458;-80
2022/03/29 07:20:26;;;;;;;;;41.75;34.00;;;;;;;;5127027;27;46251;-81
2022/03/29 07:22:51;;;;;;;;;39.25;32.75;;;;;;;;5124404;27;45359;-81
2022/03/29 07:25:20;;;;;;;;;41.50;34.75;;;;;;;;5125423;27;45292;-82
2022/03/29 07:27:46;;;;;;;;;39.25;33.25;;;;;;;;5124929;27;45285;-82
2022/03/29 07:30:12;;;;;;;;;44.50;33.25;;;;;;;;5099180;27;45458;-82
2022/03/29 07:32:44;;;;;;;;;41.50;35.00;;;;;;;;5083770;27;45262;-85
2022/03/29 07:35:10;;;;;;;;;40.25;34.25;;;;;;;;5092214;27;45317;-84
2022/03/29 07:37:35;;;;;;;;;38.00;34.00;;;;;;;;5094912;27;45808;-83
2022/03/29 07:40:00;;;;;;;;;44.50;35.75;;;;;;;;5086007;27;46264;-83
2022/03/29 07:42:26;;;;;;;;;44.00;36.25;;;;;;;;5080734;27;46527;-81
2022/03/29 07:44:51;;;;;;;;;49.50;39.00;;;;;;;;5083791;27;45347;-83
2022/03/29 07:47:17;;;;;;;;;53.75;42.50;;;;;;;;5079537;27;47270;-83
2022/03/29 07:49:43;;;;;;;;;43.25;35.00;;;;;;;;5079969;28;48072;-83
2022/03/29 07:52:08;;;;;;;;;43.75;35.50;;;;;;;;5081837;27;45341;-82
2022/03/29 07:54:33;;;;;;;;;39.50;35.00;;;;;;;;5082672;28;45352;-83
2022/03/29 07:56:59;;;;;;;;;38.75;30.50;;;;;;;;5080858;28;45924;-81
2022/03/29 07:59:24;;;;;;;;;38.25;33.75;;;;;;;;5084043;28;45378;-83
2022/03/29 08:01:50;;;;;;;;;36.75;32.50;;;;;;;;5082483;28;45387;-82
2022/03/29 08:04:15;;;;;;;;;38.00;33.25;;;;;;;;5081725;28;45285;-83
2022/03/29 08:06:40;;;;;;;;;38.50;31.25;;;;;;;;5090920;28;45918;-78
2022/03/29 08:09:06;;;;;;;;;38.00;32.25;;;;;;;;5098692;27;45451;-78
2022/03/29 08:11:34;;;;;;;;;34.00;31.50;;;;;;;;5097995;27;45327;-79
2022/03/29 08:13:59;;;;;;;;;42.00;33.50;;;;;;;;5095271;28;45287;-80
2022/03/29 08:16:24;;;;;;;;;40.75;32.00;;;;;;;;5127201;27;46157;-82
2022/03/29 08:18:50;;;;;;;;;41.00;34.50;;;;;;;;5134601;27;46367;-83
2022/03/29 08:23:59;;;;;;;;;38.50;33.75;;;;;;;;5133770;27;45346;-79
2022/03/29 08:26:25;;;;;;;;;44.50;35.25;;;;;;;;5136952;27;46015;-82
2022/03/29 08:28:50;;;;;;;;;42.75;34.75;;;;;;;;5131788;27;45357;-80
2022/03/29 08:31:16;;;;;;;;;43.75;34.75;;;;;;;;5137259;27;44990;-79
2022/03/29 08:33:41;;;;;;;;;41.25;35.50;;;;;;;;5136723;27;45368;-81
2022/03/29 08:36:06;;;;;;;;;38.25;34.00;;;;;;;;5131193;27;45405;-84
2022/03/29 08:38:32;;;;;;;;;42.75;34.50;;;;;;;;5122754;27;48187;-84
2022/03/29 08:40:58;;;;;;;;;58.25;45.75;;;;;;;;5121870;27;45343;-79
2022/03/29 08:43:28;;;;;;;;;52.75;43.50;;;;;;;;5133427;27;45258;-82
2022/03/29 08:45:53;;;;;;;;;60.25;47.75;;;;;;;;5125598;27;47415;-82
2022/03/29 08:48:23;;;;;;;;;123.75;111.50;;;;;;;;5131062;27;47074;-83
2022/03/29 08:50:49;;;;;;;;;50.00;40.75;;;;;;;;5136680;27;45175;-83
2022/03/29 08:53:19;;;;;;;;;59.25;45.25;;;;;;;;5133159;27;45442;-83
2022/03/29 08:55:45;;;;;;;;;44.00;37.00;;;;;;;;5106852;27;45759;-83
2022/03/29 08:58:11;;;;;;;;;45.00;36.00;;;;;;;;5103096;27;48011;-80
2022/03/29 09:00:36;;;;;;;;;37.25;33.00;;;;;;;;5101053;27;45970;-81
2022/03/29 09:03:01;;;;;;;;;42.00;35.25;;;;;;;;5102285;27;45356;-81
2022/03/29 09:05:29;;;;;;;;;37.00;32.50;;;;;;;;5102263;27;45362;-81
2022/03/29 09:08:00;;;;;;;;;43.00;35.75;;;;;;;;5094942;27;47125;-82
2022/03/29 09:10:38;;;;;;;;;41.25;34.25;;;;;;;;5107880;27;45460;-81
2022/03/29 09:13:23;;;;;;;;;39.25;32.25;;;;;;;;5111558;27;45259;-82
2022/03/29 09:15:49;;;;;;;;;45.50;34.75;;;;;;;;5114110;27;45502;-79
2022/03/29 09:18:14;;;;;;;;;40.25;33.50;;;;;;;;5119756;27;47465;-78
2022/03/29 09:20:40;;;;;;;;;39.00;34.00;;;;;;;;5119003;27;45493;-79
2022/03/29 09:23:11;;;;;;;;;41.25;35.50;;;;;;;;5103827;27;45421;-80
2022/03/29 09:25:37;;;;;;;;;120.25;107.75;;;;;;;;5080692;27;45417;-81
2022/03/29 09:28:03;;;;;;;;;102.50;89.00;;;;;;;;5079440;27;47605;-80
2022/03/29 09:30:58;;;;;;;;;43.25;37.00;;;;;;;;5096171;27;45634;-81
2022/03/29 09:33:32;;;;;;;;;46.50;38.25;;;;;;;;5082308;27;45227;-81
2022/03/29 09:35:58;;;;;;;;;41.75;35.25;;;;;;;;5095008;27;46081;-81
2022/03/29 09:38:24;;;;;;;;;42.25;34.00;;;;;;;;5095658;27;47587;-79
2022/03/29 09:40:50;;;;;;;;;41.00;34.25;;;;;;;;5090363;27;45394;-79
2022/03/29 09:43:15;;;;;;;;;43.75;35.00;;;;;;;;5093416;27;45215;-79
2022/03/29 09:45:40;;;;;;;;;100.00;92.50;;;;;;;;5107156;27;45519;-80
2022/03/29 09:48:27;;;;;;;;;40.50;33.75;;;;;;;;5093337;27;47236;-80
2022/03/29 09:51:08;;;;;;;;;42.00;34.75;;;;;;;;5098851;27;45241;-79
2022/03/29 09:53:33;;;;;;;;;43.00;35.25;;;;;;;;5096060;27;45426;-81
2022/03/29 09:55:59;;;;;;;;;44.00;35.67;;;;;;;;5089872;27;45632;-78
2022/03/29 09:58:24;;;;;;;;;61.00;48.25;;;;;;;;5090286;27;45869;-81
2022/03/29 10:00:49;;;;;;;;;46.25;38.00;;;;;;;;5095752;27;45336;-81
2022/03/29 10:03:17;;;;;;;;;49.50;40.50;;;;;;;;5099475;27;45407;-82
2022/03/29 10:05:42;;;;;;;;;72.00;62.50;;;;;;;;5093902;27;46833;-81
2022/03/29 10:10:53;;;;;;;;;50.50;40.75;;;;;;;;5090994;27;45378;-82
2022/03/29 10:13:24;;;;;;;;;63.50;49.75;;;;;;;;5091275;27;45461;-81
2022/03/29 10:15:51;;;;;;;;;51.00;40.00;;;;;;;;5102902;27;47177;-82
2022/03/29 10:18:16;;;;;;;;;149.67;136.33;;;;;;;;5089317;27;45503;-81
2022/03/29 10:20:42;;;;;;;;;112.75;103.25;;;;;;;;5095588;27;45317;-82
2022/03/29 10:23:08;;;;;;;;;52.75;41.00;;;;;;;;5085342;27;45311;-81
2022/03/29 10:25:33;;;;;;;;;164.33;144.67;;;;;;;;5100231;27;45375;-81
2022/03/29 10:28:00;;;;;;;;;88.50;80.75;;;;;;;;5094549;27;46955;-81
2022/03/29 10:30:31;;;;;;;;;60.50;47.00;;;;;;;;5093134;27;45386;-79
2022/03/29 10:33:14;;;;;;;;;45.75;38.00;;;;;;;;5088382;27;45527;-79
2022/03/29 10:36:16;;;;;;;;;73.75;68.50;;;;;;;;5092840;27;47177;-79
2022/03/29 10:41:30;;;;;;;;;136.67;122.67;;;;;;;;5088786;27;45314;-79
2022/03/29 10:44:01;;;;;;;;;54.25;44.00;;;;;;;;5092851;27;45290;-81
2022/03/29 10:46:46;;;;;;;;;72.25;62.00;;;;;;;;5091000;27;45622;-80
2022/03/29 10:49:34;;;;;;;;;128.00;110.75;;;;;;;;5091264;27;46957;-79
2022/03/29 10:52:05;;;;;;;;;77.75;73.00;;;;;;;;5091621;27;45404;-80
2022/03/29 10:54:30;;;;;;;;;84.50;77.50;;;;;;;;5093650;27;45565;-80
2022/03/29 10:56:58;;;;;;;;;50.00;39.67;;;;;;;;5093458;27;45454;-79
2022/03/29 10:59:24;;;;;;;;;45.50;38.50;;;;;;;;5092311;27;45540;-78
2022/03/29 11:02:08;;;;;;;;;52.00;42.25;;;;;;;;5101899;27;45422;-83
2022/03/29 11:04:34;;;;;;;;;48.25;39.25;;;;;;;;5092843;27;45360;-79
2022/03/29 11:07:09;;;;;;;;;45.67;37.67;;;;;;;;5099634;27;47306;-77
2022/03/29 11:09:36;;;;;;;;;42.00;36.33;;;;;;;;5091227;27;46373;-77
2022/03/29 11:12:03;;;;;;;;;42.33;36.33;;;;;;;;5082067;27;45460;-77
2022/03/29 11:14:28;;;;;;;;;43.67;36.00;;;;;;;;5088151;27;45254;-78
2022/03/29 11:17:13;;;;;;;;;41.75;35.25;;;;;;;;5084418;27;45416;-78
2022/03/29 11:19:48;;;;;;;;;39.33;32.67;;;;;;;;5082962;27;45380;-80
2022/03/29 11:22:29;;;;;;;;;46.25;39.00;;;;;;;;5081910;27;45456;-77
2022/03/29 11:24:55;;;;;;;;;44.00;36.33;;;;;;;;5081463;27;46275;-75
2022/03/29 11:27:26;;;;;;;;;45.50;37.50;;;;;;;;5098465;27;45721;-77
2022/03/29 11:29:51;;;;;;;;;77.00;71.00;;;;;;;;5086052;27;45727;-76
2022/03/29 11:32:17;;;;;;;;;50.00;40.75;;;;;;;;5087587;27;45554;-77
2022/03/29 11:34:43;;;;;;;;;51.75;43.25;;;;;;;;5090882;27;45405;-78
2022/03/29 11:37:24;;;;;;;;;60.25;48.50;;;;;;;;5087482;27;45637;-79
2022/03/29 11:39:49;;;;;;;;;59.50;48.00;;;;;;;;5095032;27;48261;-78
2022/03/29 11:42:14;;;;;;;;;46.67;38.67;;;;;;;;5086686;27;45444;-78
2022/03/29 11:44:40;;;;;;;;;47.25;38.25;;;;;;;;5085486;27;45272;-78
2022/03/29 11:47:07;;;;;;;;;45.25;37.75;;;;;;;;5089566;27;45571;-79
2022/03/29 11:49:39;;;;;;;;;46.33;37.33;;;;;;;;5090012;27;46153;-78
2022/03/29 11:52:04;;;;;;;;;44.00;37.00;;;;;;;;5098653;27;45363;-78
2022/03/29 11:54:29;;;;;;;;;52.75;42.75;;;;;;;;5092048;27;45293;-80
2022/03/29 11:56:54;;;;;;;;;54.75;43.00;;;;;;;;5096118;27;47320;-78
2022/03/29 11:59:20;;;;;;;;;46.50;39.25;;;;;;;;5091791;27;45454;-78
2022/03/29 12:01:45;;;;;;;;;43.00;36.00;;;;;;;;5092280;27;45428;-79
2022/03/29 12:04:11;;;;;;;;;45.00;37.33;;;;;;;;5091296;27;45577;-79
2022/03/29 12:06:50;;;;;;;;;44.00;37.00;;;;;;;;5081556;27;47320;-78
2022/03/29 12:09:26;;;;;;;;;64.75;52.25;;;;;;;;5090246;27;46166;-78
2022/03/29 12:11:55;;;;;;;;;47.75;41.00;;;;;;;;5094554;27;45486;-78
2022/03/29 12:14:21;;;;;;;;;49.25;40.75;;;;;;;;5096780;27;45262;-78
2022/03/29 12:16:46;;;;;;;;;46.67;37.67;;;;;;;;5096298;27;46009;-78
2022/03/29 12:19:13;;;;;;;;;44.33;37.33;;;;;;;;5092769;27;46446;-78
2022/03/29 12:21:39;;;;;;;;;48.33;38.00;;;;;;;;5092077;27;45250;-78
2022/03/29 12:24:06;;;;;;;;;40.33;34.00;;;;;;;;5099791;27;45357;-78
2022/03/29 12:26:32;;;;;;;;;45.33;38.67;;;;;;;;5081554;27;45566;-78
2022/03/29 12:28:57;;;;;;;;;48.75;40.50;;;;;;;;5091699;27;46118;-79
2022/03/29 12:31:24;;;;;;;;;45.50;37.75;;;;;;;;5090962;27;45361;-78
2022/03/29 12:33:51;;;;;;;;;46.33;38.00;;;;;;;;5081122;27;45341;-78
2022/03/29 12:36:16;;;;;;;;;57.25;45.00;;;;;;;;5080396;27;45414;-79
2022/03/29 12:38:48;;;;;;;;;51.25;41.75;;;;;;;;5080224;27;45491;-78
2022/03/29 12:41:14;;;;;;;;;47.75;37.25;;;;;;;;5096044;27;45311;-78
2022/03/29 12:43:40;;;;;;;;;49.25;38.25;;;;;;;;5080289;27;45313;-79
2022/03/29 12:46:07;;;;;;;;;57.25;45.00;;;;;;;;5080362;28;45467;-78
2022/03/29 12:48:32;;;;;;;;;54.00;44.00;;;;;;;;5080319;27;45332;-78
2022/03/29 12:51:04;;;;;;;;;44.75;38.00;;;;;;;;5080151;28;45247;-77
2022/03/29 12:53:29;;;;;;;;;55.50;44.75;;;;;;;;5080268;27;45237;-79
2022/03/29 12:55:55;;;;;;;;;46.75;39.50;;;;;;;;5095606;27;46312;-79
2022/03/29 12:58:37;;;;;;;;;49.00;41.00;;;;;;;;5081655;27;45399;-78
2022/03/29 13:01:03;;;;;;;;;47.00;38.50;;;;;;;;5099947;27;45360;-79
2022/03/29 13:03:35;;;;;;;;;47.25;39.00;;;;;;;;5080461;27;45307;-78
2022/03/29 13:06:03;;;;;;;;;52.75;42.25;;;;;;;;5080142;27;45150;-79
2022/03/29 13:08:29;;;;;;;;;56.25;44.75;;;;;;;;5079693;28;46061;-79
2022/03/29 13:10:54;;;;;;;;;49.00;38.25;;;;;;;;5095860;27;46061;-78
2022/03/29 13:13:22;;;;;;;;;45.67;37.33;;;;;;;;5080343;27;45356;-78
2022/03/29 13:16:00;;;;;;;;;43.33;36.00;;;;;;;;5100806;27;45347;-78
2022/03/29 13:18:34;;;;;;;;;45.67;38.33;;;;;;;;5122631;27;45936;-79
2022/03/29 13:21:17;;;;;;;;;46.25;36.25;;;;;;;;5120727;27;45304;-78
2022/03/29 13:23:44;;;;;;;;;43.00;35.67;;;;;;;;5120067;27;45366;-78
2022/03/29 13:26:11;;;;;;;;;50.25;40.00;;;;;;;;5121210;27;45348;-79
2022/03/29 13:28:37;;;;;;;;;47.67;38.67;;;;;;;;5121528;27;46081;-79
2022/03/29 13:31:03;;;;;;;;;51.00;40.00;;;;;;;;5121666;27;45332;-79
2022/03/29 13:33:28;;;;;;;;;42.75;36.50;;;;;;;;5121990;27;45398;-79
2022/03/29 13:35:53;;;;;;;;;45.00;37.33;;;;;;;;5121892;27;45269;-78
2022/03/29 13:38:19;;;;;;;;;46.75;38.75;;;;;;;;5120583;27;45300;-79
2022/03/29 13:40:45;;;;;;;;;46.33;36.67;;;;;;;;5119483;27;45371;-78
2022/03/29 13:43:11;;;;;;;;;45.00;37.00;;;;;;;;5120731;27;45351;-79
2022/03/29 13:45:36;;;;;;;;;42.67;36.33;;;;;;;;5119199;27;45887;-79
2022/03/29 13:48:03;;;;;;;;;47.75;40.50;;;;;;;;5120559;27;45302;-79
2022/03/29 13:50:28;;;;;;;;;55.25;43.25;;;;;;;;5120747;27;45329;-79
2022/03/29 13:52:54;;;;;;;;;46.00;37.25;;;;;;;;5121272;27;45501;-79
2022/03/29 13:55:19;;;;;;;;;43.75;35.50;;;;;;;;5119047;27;47423;-79
2022/03/29 13:57:45;;;;;;;;;44.75;38.00;;;;;;;;5120448;27;46077;-79
2022/03/29 14:00:12;;;;;;;;;45.50;37.25;;;;;;;;5120783;27;45265;-78
2022/03/29 14:02:37;;;;;;;;;44.33;35.00;;;;;;;;5121131;27;45336;-79
2022/03/29 14:05:02;;;;;;;;;43.75;35.75;;;;;;;;5122108;27;45160;-78
2022/03/29 14:07:28;;;;;;;;;46.00;38.50;;;;;;;;5121106;27;47248;-79
2022/03/29 14:09:53;;;;;;;;;46.00;38.00;;;;;;;;5132816;27;45352;-78
2022/03/29 14:12:18;;;;;;;;;41.67;33.00;;;;;;;;5110979;27;45176;-77
2022/03/29 14:14:43;;;;;;;;;44.67;38.00;;;;;;;;5093874;27;45539;-78
2022/03/29 14:17:09;;;;;;;;;46.75;39.25;;;;;;;;5122454;27;47875;-80
2022/03/29 14:19:34;;;;;;;;;45.25;37.50;;;;;;;;5122580;27;45870;-83
2022/03/29 14:22:00;;;;;;;;;48.75;39.50;;;;;;;;5130324;27;45509;-82
2022/03/29 14:24:25;;;;;;;;;46.25;39.25;;;;;;;;5112416;27;45503;-81
2022/03/29 14:26:53;;;;;;;;;52.25;42.25;;;;;;;;5105629;27;45270;-85